Aérodrome :
LOGIN :

S'inscrire | Disclaimer

   EN    FR    IT 

 










Légende :    VFR   VFR Marginal   IFR   IFR Intensif   IFR Très Intensif
Visi : 
Plafond : 
>= 8 km
>= 3000ft
5 à 8 km
1000 à 3000 ft
1500m à 5 km
500 à 1000 ft
800 à 1500m
200 à 500 ft
< 800m
< 200 ft
Symboles :   Orages  Brouillard  Fortes neiges  Fortes précipitations  Vent > 20 kt
SIGMETs :   Divers  Orages  Givrage  Turbulence  Onde Orograph.  Cendres Volcan.







- Altitude de l'aérodrome : 197 ft
- Code IATA : XOG
- Voir les cartes d'approche


LFMO - Orange

DERNIER METAR :
  • 210230Z AUTO 00000KT CAVOK 14/11 Q1019 TEMPO 3000 BR BECMG 20015KT

METARs EXPIRÉS :
  • 210200Z AUTO 27003KT CAVOK 15/12 Q1020 TEMPO 3000 BR BECMG 20015KT
  • 210130Z AUTO 32002KT CAVOK 15/13 Q1020 TEMPO 3000 BR BECMG 20015KT
  • 210100Z AUTO 26001KT CAVOK 16/13 Q1020 BECMG 20015KT
  • 210030Z AUTO 28002KT CAVOK 17/12 Q1020 BECMG 20015KT
  • 210000Z AUTO 24003KT CAVOK 18/12 Q1020 BECMG 20015KT

TAF TAF LFMO
Valide du 20 à 21h jusqu'au 21 à 21h UTC


202000Z 2021/2121 20015KT 9999 FEW050
PROB40
TEMPO 2103/2107 3000 BR
TEMPO 2113/2120 4000 -SHRA BKN050TCU
Pas de NOTAMs connus pour ce terrain.



MET'MAP, la Météo Aéronautique d'un coup d'oeil ! - Copyright ORBIFLY Décembre 2007 - Disclaimer

ORBIFLY MET'MAP TEAM :

Programmation & Développement : Alexandra Zaïnal
Conception & Développement : Baudouin d'Aumeries
Co-Programmation & Développement : Marc-Olivier Méhu
Soutien technique & logistique : Manuel Goepfert

Contact : metmap@orbifly.com




SOURCES & CREDITS :

   NOAA